Yutan, Nebraska
Current Conditions -  °F | °C
As of 8:15 PM on Monday 22 Dec 2014 (Local Time) from KAHQ Reporting Station
Overcast Overcast  
Wind Chill: 32°   Ceiling: 6000
Heat Index: 38°   Visibility: 10mi
Dew Point: 34°   Wind: 9mph
Humidity: 86%   Direction: 300°WNW
Pressure: 29.48"   Gusts: NA
Location:  41.24°N, 96.4°W
Report Text: KAHQ 230215Z AUTO 30008KT 10SM SCT014 OVC060 04/01 A2948 RMK AO2 T00350013
Loading
Personal Weather Stations






























Interactive Weather Map New forecast layout! Learn more

10-Day Weather Forecast

Advertisements
Track Severe Weather on mobile